createdAt,value
2018-11-04T00:01:42.651Z,98553.32
2018-11-04T00:04:12.694Z,98552.15
2018-11-04T00:06:42.362Z,98548.00
2018-11-04T00:09:12.531Z,98549.70
2018-11-04T00:11:42.525Z,98544.47
2018-11-04T00:14:12.467Z,98540.77
2018-11-04T00:16:43.171Z,98542.53
2018-11-04T00:19:18.388Z,98541.55
2018-11-04T00:21:48.066Z,98539.39
2018-11-04T00:24:17.998Z,98538.22
2018-11-04T00:26:49.192Z,98535.60
2018-11-04T00:29:18.834Z,98531.00
2018-11-04T00:31:54.384Z,98529.23
2018-11-04T00:34:24.106Z,98528.77
2018-11-04T00:36:55.059Z,98524.91
2018-11-04T00:39:29.546Z,98532.12
2018-11-04T00:42:01.325Z,98526.16
2018-11-04T00:44:33.055Z,98526.49
2018-11-04T00:47:04.195Z,98524.73
2018-11-04T00:49:35.452Z,98521.26
2018-11-04T00:52:05.703Z,98528.26
2018-11-04T00:54:35.333Z,98524.80
2018-11-04T00:57:05.212Z,98520.97
2018-11-04T00:59:35.223Z,98522.67
2018-11-04T01:02:06.351Z,98519.66
2018-11-04T01:04:36.281Z,98516.42
2018-11-04T01:07:06.196Z,98519.39
2018-11-04T01:09:35.827Z,98518.77
2018-11-04T01:12:05.604Z,98510.62
2018-11-04T01:14:35.460Z,98504.55
2018-11-04T01:17:07.278Z,98497.55
2018-11-04T01:19:37.061Z,98487.72
2018-11-04T01:22:06.803Z,98484.59
2018-11-04T01:24:36.702Z,98479.34
2018-11-04T01:27:06.548Z,98478.66
2018-11-04T01:29:36.310Z,98480.82
2018-11-04T01:32:06.746Z,98463.03
2018-11-04T01:34:36.459Z,98461.05
2018-11-04T01:37:06.243Z,98462.00
2018-11-04T01:39:36.071Z,98462.00
2018-11-04T01:42:05.999Z,98463.59
2018-11-04T01:44:35.580Z,98459.45
2018-11-04T01:47:05.867Z,98454.72
2018-11-04T01:49:35.620Z,98452.09
2018-11-04T01:52:05.527Z,98440.86
2018-11-04T01:54:35.237Z,98439.09
2018-11-04T01:57:04.972Z,98434.37
2018-11-04T01:59:34.625Z,98433.25
2018-11-04T02:02:04.672Z,98429.25
2018-11-04T02:04:34.437Z,98432.33
2018-11-04T02:07:04.135Z,98427.55
2018-11-04T02:09:33.828Z,98424.66
2018-11-04T02:12:03.863Z,98426.52
2018-11-04T02:14:33.487Z,98415.48
2018-11-04T02:17:03.777Z,98413.52
2018-11-04T02:19:33.981Z,98405.84
2018-11-04T02:22:03.726Z,98393.78
2018-11-04T02:24:33.407Z,98389.02
2018-11-04T02:27:03.551Z,98384.28
2018-11-04T02:29:33.365Z,98385.09
2018-11-04T02:32:03.068Z,98393.16
2018-11-04T02:34:33.018Z,98389.86
2018-11-04T02:37:02.686Z,98389.69
2018-11-04T02:39:32.338Z,98395.48
2018-11-04T02:42:02.352Z,98396.11
2018-11-04T02:44:32.021Z,98394.91
2018-11-04T02:47:01.874Z,98400.20
2018-11-04T02:49:31.387Z,98395.37
2018-11-04T02:52:02.413Z,98392.13
2018-11-04T02:54:32.094Z,98391.56
2018-11-04T02:57:01.743Z,98382.41
2018-11-04T02:59:31.368Z,98379.41
2018-11-04T03:02:01.286Z,98386.16
2018-11-04T03:04:30.947Z,98378.31
2018-11-04T03:07:00.594Z,98381.28
2018-11-04T03:09:30.279Z,98376.66
2018-11-04T03:11:59.956Z,98379.97
2018-11-04T03:14:30.240Z,98370.47
2018-11-04T03:17:02.436Z,98374.46
2018-11-04T03:19:32.118Z,98362.80
2018-11-04T03:22:01.751Z,98362.98
2018-11-04T03:24:31.476Z,98359.66
2018-11-04T03:27:01.173Z,98367.11
2018-11-04T03:29:30.860Z,98361.03
2018-11-04T03:32:01.971Z,98352.52
2018-11-04T03:34:31.850Z,98343.92
2018-11-04T03:37:01.627Z,98344.77
2018-11-04T03:39:31.269Z,98348.48
2018-11-04T03:42:00.941Z,98344.09
2018-11-04T03:44:30.500Z,98345.69
2018-11-04T03:47:00.093Z,98352.63
2018-11-04T03:49:32.230Z,98350.28
2018-11-04T03:52:01.810Z,98349.26
2018-11-04T03:54:31.456Z,98351.41
2018-11-04T03:57:01.297Z,98346.08
2018-11-04T03:59:32.711Z,98345.45
2018-11-04T04:02:02.487Z,98347.89
2018-11-04T04:04:32.150Z,98339.09
2018-11-04T04:07:01.823Z,98335.66
2018-11-04T04:09:31.510Z,98339.47
2018-11-04T04:12:01.142Z,98335.38
2018-11-04T04:14:31.103Z,98332.20
2018-11-04T04:17:00.824Z,98326.05
2018-11-04T04:19:30.472Z,98330.71
2018-11-04T04:22:00.182Z,98332.02
2018-11-04T04:24:30.143Z,98327.35
2018-11-04T04:26:59.753Z,98326.61
2018-11-04T04:29:29.412Z,98333.15
2018-11-04T04:31:59.715Z,98322.41
2018-11-04T04:34:29.378Z,98324.63
2018-11-04T04:36:59.086Z,98329.76
2018-11-04T04:39:30.027Z,98321.45
2018-11-04T04:41:59.747Z,98318.48
2018-11-04T04:44:29.482Z,98315.76
2018-11-04T04:46:59.144Z,98311.83
2018-11-04T04:49:29.357Z,98312.22
2018-11-04T04:52:00.494Z,98309.22
2018-11-04T04:54:30.447Z,98302.11
2018-11-04T04:57:00.298Z,98293.80
2018-11-04T04:59:30.103Z,98297.55
2018-11-04T05:02:00.554Z,98285.70
2018-11-04T05:04:30.240Z,98286.94
2018-11-04T05:07:00.023Z,98288.70
2018-11-04T05:09:29.686Z,98287.94
2018-11-04T05:11:59.344Z,98290.73
2018-11-04T05:14:29.018Z,98298.19
2018-11-04T05:16:58.935Z,98303.07
2018-11-04T05:19:28.629Z,98294.73
2018-11-04T05:21:58.519Z,98300.17
2018-11-04T05:24:28.125Z,98300.09
2018-11-04T05:26:59.093Z,98297.02
2018-11-04T05:29:28.734Z,98298.64
2018-11-04T05:31:58.413Z,98286.87
2018-11-04T05:34:28.204Z,98286.55
2018-11-04T05:36:58.182Z,98273.55
2018-11-04T05:39:27.863Z,98276.16
2018-11-04T05:41:57.545Z,98275.91
2018-11-04T05:44:27.169Z,98269.47
2018-11-04T05:46:57.046Z,98269.95
2018-11-04T05:49:27.564Z,98262.19
2018-11-04T05:51:57.202Z,98256.67
2018-11-04T05:54:26.887Z,98261.16
2018-11-04T05:56:56.871Z,98262.30
2018-11-04T05:59:26.614Z,98258.08
2018-11-04T06:01:56.268Z,98258.36
2018-11-04T06:04:25.895Z,98260.52
2018-11-04T06:06:55.563Z,98258.09
2018-11-04T06:09:25.172Z,98266.31
2018-11-04T06:11:55.269Z,98259.31
2018-11-04T06:14:24.862Z,98259.20
2018-11-04T06:16:54.506Z,98264.90
2018-11-04T06:19:24.314Z,98266.67
2018-11-04T06:21:58.813Z,98260.90
2018-11-04T06:24:28.506Z,98274.34
2018-11-04T06:26:58.142Z,98271.72
2018-11-04T06:29:27.794Z,98275.00
2018-11-04T06:31:57.780Z,98283.88
2018-11-04T06:34:27.568Z,98283.31
2018-11-04T06:36:57.280Z,98284.62
2018-11-04T06:39:26.927Z,98284.34
2018-11-04T06:41:56.715Z,98285.37
2018-11-04T06:44:26.439Z,98286.67
2018-11-04T06:46:57.447Z,98287.80
2018-11-04T06:49:27.267Z,98285.65
2018-11-04T06:51:57.170Z,98287.63
2018-11-04T06:54:26.850Z,98283.70
2018-11-04T06:56:56.504Z,98278.39
2018-11-04T06:59:26.477Z,98270.81
2018-11-04T07:01:56.491Z,98259.98
2018-11-04T07:04:27.566Z,98259.98
2018-11-04T07:06:57.360Z,98259.02
2018-11-04T07:09:29.722Z,98259.30
2018-11-04T07:12:00.461Z,98260.61
2018-11-04T07:14:30.775Z,98262.20
2018-11-04T07:17:00.499Z,98279.88
2018-11-04T07:19:30.211Z,98295.84
2018-11-04T07:22:00.412Z,98299.05
2018-11-04T07:24:30.210Z,98297.28
2018-11-04T07:26:59.813Z,98308.57
2018-11-04T07:29:29.835Z,98306.72
2018-11-04T07:32:09.512Z,98297.64
2018-11-04T07:34:39.363Z,98301.77
2018-11-04T07:37:16.150Z,98299.04
2018-11-04T07:39:46.934Z,98300.27
2018-11-04T07:42:17.466Z,98296.88
2018-11-04T07:44:54.371Z,98288.38
2018-11-04T07:47:25.084Z,98294.00
2018-11-04T07:49:55.474Z,98293.42
2018-11-04T07:52:25.300Z,98284.00
2018-11-04T07:54:55.613Z,98281.47
2018-11-04T07:57:30.828Z,98276.31
2018-11-04T08:00:01.292Z,98274.42
2018-11-04T08:02:31.923Z,98273.47
2018-11-04T08:05:04.261Z,98275.16
2018-11-04T08:07:34.111Z,98279.48
2018-11-04T08:10:07.809Z,98264.03
2018-11-04T08:12:37.719Z,98274.86
2018-11-04T08:15:08.002Z,98264.95
2018-11-04T08:17:38.262Z,98270.77
2018-11-04T08:20:10.431Z,98267.61
2018-11-04T08:22:40.886Z,98269.00
2018-11-04T08:25:16.419Z,98277.23
2018-11-04T08:27:46.431Z,98274.97
2018-11-04T08:30:16.082Z,98265.15
2018-11-04T08:32:46.163Z,98258.98
2018-11-04T08:35:17.262Z,98253.91
2018-11-04T08:37:46.859Z,98251.28
2018-11-04T08:40:18.115Z,98247.00
2018-11-04T08:42:47.810Z,98259.14
2018-11-04T08:45:17.483Z,98262.80
2018-11-04T08:47:48.812Z,98252.78
2018-11-04T08:50:18.510Z,98250.50
2018-11-04T08:52:48.263Z,98252.58
2018-11-04T08:55:18.279Z,98248.27
2018-11-04T08:57:48.600Z,98242.83
2018-11-04T09:00:19.404Z,98233.53
2018-11-04T09:02:49.406Z,98227.64
2018-11-04T09:05:19.121Z,98228.28
2018-11-04T09:07:48.727Z,98230.39
2018-11-04T09:10:20.147Z,98239.58
2018-11-04T09:12:51.701Z,98247.70
2018-11-04T09:15:26.325Z,98240.02
2018-11-04T09:17:56.067Z,98219.67
2018-11-04T09:20:25.862Z,98220.05
2018-11-04T09:23:03.138Z,98224.86
2018-11-04T09:25:33.183Z,98232.09
2018-11-04T09:28:22.963Z,98243.19
2018-11-04T09:30:52.845Z,98221.54
2018-11-04T09:33:22.596Z,98220.98
2018-11-04T09:35:52.997Z,98223.14
2018-11-04T09:38:22.736Z,98218.19
2018-11-04T09:40:52.550Z,98220.52
2018-11-04T09:43:40.390Z,98223.52
2018-11-04T09:46:10.939Z,98225.58
2018-11-04T09:48:40.718Z,98219.88
2018-11-04T09:51:15.927Z,98207.86
2018-11-04T09:53:45.591Z,98208.63
2018-11-04T09:56:15.414Z,98215.48
2018-11-04T09:58:45.707Z,98212.61
2018-11-04T10:01:35.161Z,98211.39
2018-11-04T10:04:45.401Z,98206.17
2018-11-04T10:07:22.971Z,98196.70
2018-11-04T10:09:52.760Z,98190.73
2018-11-04T10:12:22.798Z,98192.30
2018-11-04T10:14:52.445Z,98189.09
2018-11-04T10:17:25.210Z,98191.98
2018-11-04T10:19:55.617Z,98185.09
2018-11-04T10:22:27.606Z,98177.38
2018-11-04T10:24:57.312Z,98175.27
2018-11-04T10:27:27.829Z,98158.85
2018-11-04T10:29:57.570Z,98157.81
2018-11-04T10:32:28.649Z,98150.91
2018-11-04T10:34:59.442Z,98136.97
2018-11-04T10:37:30.298Z,98139.97
2018-11-04T10:40:00.831Z,98140.14
2018-11-04T10:42:37.764Z,98129.73
2018-11-04T10:45:09.110Z,98132.66
2018-11-04T10:47:39.063Z,98125.36
2018-11-04T10:50:10.867Z,98130.87
2018-11-04T10:52:40.615Z,98124.85
2018-11-04T10:55:12.331Z,98136.88
2018-11-04T10:57:43.368Z,98141.23
2018-11-04T11:00:20.586Z,98139.53
2018-11-04T11:02:50.776Z,98124.27
2018-11-04T11:05:20.672Z,98112.63
2018-11-04T11:07:52.687Z,98118.48
2018-11-04T11:10:22.909Z,98113.52
2018-11-04T11:12:52.881Z,98111.06
2018-11-04T11:15:22.686Z,98107.29
2018-11-04T11:17:52.839Z,98104.83
2018-11-04T11:20:23.053Z,98115.80
2018-11-04T11:22:53.270Z,98104.85
2018-11-04T11:25:23.020Z,98106.16
2018-11-04T11:27:53.260Z,98105.73
2018-11-04T11:30:23.598Z,98103.75
2018-11-04T11:35:47.295Z,98105.08
2018-11-04T11:38:18.795Z,98097.81
2018-11-04T11:40:52.094Z,98091.12
2018-11-04T11:43:22.183Z,98086.77
2018-11-04T11:45:51.997Z,98094.77
2018-11-04T11:48:23.323Z,98087.31
2018-11-04T11:50:53.806Z,98091.25
2018-11-04T11:53:27.027Z,98096.49
2018-11-04T11:55:57.974Z,98090.57
2018-11-04T11:58:29.674Z,98090.96
2018-11-04T12:01:07.704Z,98078.73
2018-11-04T12:03:59.363Z,98075.39
2018-11-04T12:06:52.684Z,98074.06
2018-11-04T12:09:25.347Z,98062.21
2018-11-04T12:11:56.666Z,98057.06
2018-11-04T12:14:27.533Z,98054.88
2018-11-04T12:17:29.089Z,98045.13
2018-11-04T12:20:02.463Z,98039.12
2018-11-04T12:22:33.958Z,98042.44
2018-11-04T12:25:10.813Z,98041.80
2018-11-04T12:27:49.475Z,98041.30
2018-11-04T12:30:20.782Z,98034.19
2018-11-04T12:32:54.661Z,98032.19
2018-11-04T12:35:25.354Z,98021.69
2018-11-04T12:38:13.025Z,98026.72
2018-11-04T12:40:47.173Z,98018.87
2018-11-04T12:43:33.765Z,98014.09
2018-11-04T12:46:08.405Z,98006.27
2018-11-04T13:02:44.377Z,97979.08
2018-11-04T13:05:15.362Z,97978.48
2018-11-04T13:07:46.979Z,97967.62
2018-11-04T13:10:18.161Z,97974.42
2018-11-04T13:12:48.331Z,97963.55
2018-11-04T13:15:19.487Z,97953.28
2018-11-04T13:17:49.327Z,97951.98
2018-11-04T13:20:19.705Z,97950.70
2018-11-04T13:22:50.043Z,97946.64
2018-11-04T13:25:19.712Z,97945.13
2018-11-04T13:27:51.178Z,97948.60
2018-11-04T13:30:20.967Z,97947.94
2018-11-04T13:32:50.709Z,97948.31
2018-11-04T13:35:25.906Z,97950.72
2018-11-04T13:40:47.118Z,97948.22
2018-11-04T13:43:18.455Z,97943.41
2018-11-04T13:45:48.372Z,97950.09
2018-11-04T13:48:19.581Z,97946.28
2018-11-04T13:50:49.411Z,97943.54
2018-11-04T13:53:19.823Z,97943.16
2018-11-04T13:55:50.001Z,97945.66
2018-11-04T13:58:19.679Z,97945.16
2018-11-04T14:00:50.453Z,97953.63
2018-11-04T14:03:20.902Z,97947.94
2018-11-04T14:05:59.578Z,97947.34
2018-11-04T14:08:29.322Z,97949.03
2018-11-04T14:10:59.094Z,97941.76
2018-11-04T14:13:29.943Z,97948.88
2018-11-04T14:16:00.513Z,97942.94
2018-11-04T14:18:30.554Z,97944.59
2018-11-04T14:21:01.803Z,97936.29
2018-11-04T14:23:31.622Z,97935.27
2018-11-04T14:26:01.395Z,97926.67
2018-11-04T14:28:31.114Z,97931.42
2018-11-04T14:31:01.270Z,97916.62
2018-11-04T14:33:30.983Z,97913.84
2018-11-04T14:36:01.325Z,97909.03
2018-11-04T14:38:31.227Z,97902.60
2018-11-04T14:41:01.935Z,97894.80
2018-11-04T14:43:31.628Z,97902.32
2018-11-04T14:46:01.941Z,97902.16
2018-11-04T14:48:31.601Z,97908.47
2018-11-04T14:51:01.620Z,97903.06
2018-11-04T14:53:32.544Z,97887.09
2018-11-04T14:56:02.354Z,97889.95
2018-11-04T14:58:32.074Z,97885.55
2018-11-04T15:01:04.317Z,97889.70
2018-11-04T15:03:34.078Z,97882.00
2018-11-04T15:06:03.865Z,97890.17
2018-11-04T15:08:34.028Z,97879.44
2018-11-04T15:11:03.866Z,97886.95
2018-11-04T15:13:34.326Z,97882.27
2018-11-04T15:16:09.644Z,97880.93
2018-11-04T15:18:39.380Z,97881.30
2018-11-04T15:21:09.840Z,97883.55
2018-11-04T15:23:50.645Z,97885.03
2018-11-04T15:26:21.507Z,97889.30
2018-11-04T15:28:53.020Z,97884.75
2018-11-04T15:31:24.226Z,97878.24
2018-11-04T15:33:56.230Z,97876.59
2018-11-04T15:36:26.647Z,97877.98
2018-11-04T15:38:57.147Z,97889.11
2018-11-04T15:44:15.287Z,97877.86
2018-11-04T15:46:45.926Z,97871.69
2018-11-04T15:49:16.083Z,97743.80
2018-11-04T15:51:57.407Z,97859.52
2018-11-04T15:54:31.186Z,97859.23
2018-11-04T15:57:08.076Z,97864.17
2018-11-04T15:59:37.699Z,97867.01
2018-11-04T16:02:07.399Z,97876.39
2018-11-04T16:04:44.541Z,97867.13
2018-11-04T16:07:09.368Z,97864.25
2018-11-04T16:09:39.571Z,97864.72
2018-11-04T16:12:10.070Z,97867.80
2018-11-04T16:14:40.559Z,97863.03
2018-11-04T16:17:10.855Z,97852.18
2018-11-04T16:19:40.748Z,97856.95
2018-11-04T16:22:10.416Z,97854.55
2018-11-04T16:24:47.425Z,97867.64
2018-11-04T16:27:48.801Z,97861.00
2018-11-04T16:30:31.008Z,97870.17
2018-11-04T16:33:08.827Z,97874.77
2018-11-04T16:35:38.796Z,97869.66
2018-11-04T16:38:09.441Z,97858.34
2018-11-04T16:40:40.300Z,97855.25
2018-11-04T16:43:19.032Z,97862.14
2018-11-04T16:45:49.556Z,97865.86
2018-11-04T16:48:20.842Z,97859.23
2018-11-04T16:50:52.100Z,97857.92
2018-11-04T16:53:25.236Z,97857.70
2018-11-04T16:55:56.087Z,97852.68
2018-11-04T16:58:25.807Z,97846.48
2018-11-04T17:00:56.519Z,97845.13
2018-11-04T17:03:35.801Z,97842.46
2018-11-04T17:06:08.749Z,97828.14
2018-11-04T17:08:39.496Z,97830.08
2018-11-04T17:11:12.035Z,97835.06
2018-11-04T17:13:42.880Z,97840.52
2018-11-04T17:16:13.308Z,97842.67
2018-11-04T17:18:43.164Z,97831.44
2018-11-04T17:21:13.454Z,97839.30
2018-11-04T17:23:44.374Z,97831.44
2018-11-04T17:26:30.294Z,97827.64
2018-11-04T17:29:02.975Z,97820.50
2018-11-04T17:31:39.483Z,97811.88
2018-11-04T17:39:39.396Z,97833.30
2018-11-04T17:42:09.677Z,97842.20
2018-11-04T17:44:53.077Z,97829.95
2018-11-04T17:47:24.588Z,97823.16
2018-11-04T17:49:54.594Z,97817.70
2018-11-04T17:52:25.187Z,97810.66
2018-11-04T17:54:57.176Z,97805.63
2018-11-04T18:03:50.700Z,97823.92
2018-11-04T18:06:20.778Z,97824.85
2018-11-04T18:08:57.417Z,97808.58
2018-11-04T18:11:28.662Z,97814.75
2018-11-04T18:13:58.997Z,97806.55
2018-11-04T18:16:31.927Z,97811.50
2018-11-04T18:19:06.074Z,97814.33
2018-11-04T18:21:36.680Z,97824.55
2018-11-04T18:27:21.265Z,97817.15
2018-11-04T18:29:53.077Z,97807.19
2018-11-04T18:32:23.524Z,97808.50
2018-11-04T18:34:53.647Z,97806.47
2018-11-04T18:37:23.679Z,97811.20
2018-11-04T18:39:54.654Z,97802.34
2018-11-04T18:42:24.751Z,97797.78
2018-11-04T18:45:00.903Z,97806.59
2018-11-04T18:47:32.845Z,97787.05
2018-11-04T18:50:05.768Z,97793.72
2018-11-04T18:52:38.386Z,97794.95
2018-11-04T18:55:10.532Z,97791.40
2018-11-04T18:57:44.518Z,97790.68
2018-11-04T19:00:44.619Z,97766.61
2018-11-04T19:03:15.097Z,97793.51
2018-11-04T19:05:45.398Z,97794.66
2018-11-04T19:08:15.371Z,97794.02
2018-11-04T19:13:41.514Z,97786.55
2018-11-04T19:16:13.290Z,97781.31
2018-11-04T19:18:44.218Z,97788.19
2018-11-04T19:21:22.721Z,97789.12
2018-11-04T19:23:57.112Z,97788.19
2018-11-04T19:26:27.274Z,97784.81
2018-11-04T19:28:58.341Z,97781.47
2018-11-04T19:33:55.327Z,97772.44
2018-11-04T19:39:19.679Z,97773.83
2018-11-04T19:41:50.828Z,97780.96
2018-11-04T19:44:23.621Z,97789.03
2018-11-04T19:46:53.528Z,97778.55
2018-11-04T19:49:25.445Z,97772.02
2018-11-04T19:52:04.648Z,97769.39
2018-11-04T19:54:35.352Z,97764.72
2018-11-04T19:57:06.405Z,97769.39
2018-11-04T19:59:37.243Z,97763.99
2018-11-04T20:02:07.859Z,97766.82
2018-11-04T20:04:37.936Z,97768.09
2018-11-04T20:07:09.029Z,97769.91
2018-11-04T20:09:39.128Z,97760.14
2018-11-04T20:12:13.242Z,97767.03
2018-11-04T20:14:44.080Z,97772.59
2018-11-04T20:17:30.826Z,97764.83
2018-11-04T20:20:17.073Z,97754.36
2018-11-04T20:22:47.607Z,97760.30
2018-11-04T20:25:23.627Z,97755.88
2018-11-04T20:27:56.102Z,97739.67
2018-11-04T20:30:26.057Z,97741.56
2018-11-04T20:33:01.613Z,97728.31
2018-11-04T20:35:31.468Z,97731.98
2018-11-04T20:38:01.261Z,97748.34
2018-11-04T20:40:36.436Z,97749.45
2018-11-04T20:43:06.597Z,97750.50
2018-11-04T20:45:37.551Z,97745.47
2018-11-04T20:48:13.753Z,97739.02
2018-11-04T20:50:53.510Z,97745.19
2018-11-04T20:53:24.518Z,97739.86
2018-11-04T20:56:01.108Z,97735.02
2018-11-04T20:58:30.875Z,97729.70
2018-11-04T21:01:01.233Z,97731.21
2018-11-04T21:03:35.425Z,97719.91
2018-11-04T21:06:08.340Z,97722.06
2018-11-04T21:08:42.063Z,97721.16
2018-11-04T21:11:13.437Z,97722.84
2018-11-04T21:13:50.496Z,97717.83
2018-11-04T21:16:57.388Z,97714.16
2018-11-04T21:19:30.999Z,97704.23
2018-11-04T21:22:01.514Z,97715.20
2018-11-04T21:24:37.314Z,97711.44
2018-11-04T21:27:09.865Z,97702.84
2018-11-04T21:29:52.663Z,97708.77
2018-11-04T21:32:23.272Z,97714.34
2018-11-04T21:35:16.826Z,97702.28
2018-11-04T21:37:51.902Z,97689.51
2018-11-04T21:40:24.020Z,97682.02
2018-11-04T21:48:57.410Z,97686.98
2018-11-04T21:51:29.545Z,97693.43
2018-11-04T21:53:59.976Z,97689.95
2018-11-04T21:56:34.068Z,97690.67
2018-11-04T21:59:16.295Z,97682.66
2018-11-04T22:01:47.456Z,97680.20
2018-11-04T22:04:18.126Z,97692.39
2018-11-04T22:06:49.594Z,97694.94
2018-11-04T22:09:41.391Z,97685.62
2018-11-04T22:12:12.850Z,97689.01
2018-11-04T22:14:43.083Z,97698.19
2018-11-04T22:17:13.797Z,97693.31
2018-11-04T22:20:14.536Z,97696.30
2018-11-04T22:22:47.307Z,97693.81
2018-11-04T22:28:07.155Z,97674.36
2018-11-04T22:30:36.787Z,97678.84
2018-11-04T22:33:10.208Z,97671.02
2018-11-04T22:35:40.916Z,97672.89
2018-11-04T22:38:10.479Z,97664.69
2018-11-04T22:40:41.609Z,97663.92
2018-11-04T22:51:44.125Z,97652.75
2018-11-04T22:54:31.596Z,97661.20
2018-11-04T22:57:21.852Z,97650.48
2018-11-04T22:59:53.078Z,97638.86
2018-11-04T23:02:41.111Z,97632.42
2018-11-04T23:05:17.679Z,97641.39
2018-11-04T23:07:51.713Z,97633.38
2018-11-04T23:10:23.332Z,97630.50
2018-11-04T23:12:53.343Z,97628.20
2018-11-04T23:15:32.816Z,97629.69
2018-11-04T23:18:15.234Z,97627.81
2018-11-04T23:21:11.543Z,97628.58
2018-11-04T23:26:42.558Z,97615.81
2018-11-04T23:29:13.015Z,97610.02
2018-11-04T23:31:45.759Z,97600.08
2018-11-04T23:34:21.009Z,97605.11
2018-11-04T23:36:52.216Z,97614.13
2018-11-04T23:41:09.232Z,97614.08
2018-11-04T23:43:46.621Z,97609.39
2018-11-04T23:46:18.334Z,97608.67
2018-11-04T23:48:55.526Z,97622.44
2018-11-04T23:51:26.486Z,97623.73
2018-11-04T23:53:56.176Z,97620.96
2018-11-04T23:56:27.101Z,97620.49
2018-11-04T23:58:57.384Z,97618.73
